createdAt,value
2018-08-16T00:00:13.168Z,101520.77
2018-08-16T00:03:17.397Z,101518.84
2018-08-16T00:06:21.616Z,101514.92
2018-08-16T00:09:26.794Z,101509.41
2018-08-16T00:12:31.009Z,101517.61
2018-08-16T00:15:35.251Z,101520.59
2018-08-16T00:18:39.476Z,101515.34
2018-08-16T00:21:43.727Z,101521.90
2018-08-16T00:24:47.944Z,101516.66
2018-08-16T00:27:52.156Z,101522.41
2018-08-16T00:30:56.404Z,101516.58
2018-08-16T00:34:00.585Z,101527.30
2018-08-16T00:37:04.800Z,101519.56
2018-08-16T00:40:12.030Z,101526.42
2018-08-16T00:43:16.292Z,101516.45
2018-08-16T00:46:20.514Z,101510.04
2018-08-16T00:49:24.784Z,101511.92
2018-08-16T00:52:29.046Z,101508.31
2018-08-16T00:55:33.277Z,101517.34
2018-08-16T00:58:37.525Z,101504.11
2018-08-16T01:01:41.733Z,101504.95
2018-08-16T01:04:45.989Z,101499.45
2018-08-16T01:07:50.214Z,101504.11
2018-08-16T01:10:54.489Z,101502.97
2018-08-16T01:13:58.725Z,101501.31
2018-08-16T01:17:02.936Z,101492.22
2018-08-16T01:20:07.573Z,101491.13
2018-08-16T01:23:11.798Z,101494.19
2018-08-16T01:26:16.069Z,101485.12
2018-08-16T01:29:20.278Z,101487.08
2018-08-16T01:32:24.540Z,101486.55
2018-08-16T01:35:28.769Z,101491.73
2018-08-16T01:38:33.038Z,101492.05
2018-08-16T01:41:37.604Z,101495.35
2018-08-16T01:44:41.856Z,101483.55
2018-08-16T01:47:46.058Z,101477.22
2018-08-16T01:50:50.300Z,101480.56
2018-08-16T01:53:54.538Z,101481.94
2018-08-16T01:56:59.628Z,101478.39
2018-08-16T02:00:05.612Z,101471.80
2018-08-16T02:03:09.837Z,101469.89
2018-08-16T02:06:14.118Z,101470.52
2018-08-16T02:09:18.393Z,101468.08
2018-08-16T02:12:22.628Z,101465.27
2018-08-16T02:15:26.853Z,101471.34
2018-08-16T02:18:32.197Z,101462.25
2018-08-16T02:21:37.305Z,101465.23
2018-08-16T02:24:41.910Z,101469.05
2018-08-16T02:27:46.476Z,101469.89
2018-08-16T02:30:51.068Z,101460.24
2018-08-16T02:33:55.861Z,101457.75
2018-08-16T02:37:00.103Z,101460.19
2018-08-16T02:40:04.820Z,101460.78
2018-08-16T02:43:09.061Z,101464.37
2018-08-16T02:46:13.317Z,101464.84
2018-08-16T02:49:17.553Z,101463.13
2018-08-16T02:52:21.785Z,101469.98
2018-08-16T02:55:26.033Z,101461.70
2018-08-16T02:58:30.280Z,101455.90
2018-08-16T03:01:34.538Z,101452.34
2018-08-16T03:04:38.784Z,101449.59
2018-08-16T03:07:43.153Z,101446.84
2018-08-16T03:10:47.377Z,101446.59
2018-08-16T03:13:51.612Z,101437.22
2018-08-16T03:16:56.041Z,101444.34
2018-08-16T03:20:01.686Z,101432.20
2018-08-16T03:23:05.992Z,101436.32
2018-08-16T03:26:10.222Z,101436.66
2018-08-16T03:29:14.557Z,101433.34
2018-08-16T03:32:18.819Z,101438.34
2018-08-16T03:35:23.089Z,101437.84
2018-08-16T03:38:27.421Z,101431.83
2018-08-16T03:41:31.688Z,101432.37
2018-08-16T03:44:37.250Z,101429.92
2018-08-16T03:47:42.223Z,101428.90
2018-08-16T03:50:47.026Z,101430.09
2018-08-16T03:53:52.060Z,101433.95
2018-08-16T03:56:57.696Z,101427.09
2018-08-16T04:00:02.929Z,101429.66
2018-08-16T04:03:08.035Z,101431.63
2018-08-16T04:06:12.933Z,101433.84
2018-08-16T04:09:17.929Z,101432.22
2018-08-16T04:12:23.313Z,101424.77
2018-08-16T04:15:28.393Z,101426.20
2018-08-16T04:18:32.693Z,101415.20
2018-08-16T04:21:36.929Z,101418.81
2018-08-16T04:24:41.146Z,101427.38
2018-08-16T04:27:45.406Z,101418.04
2018-08-16T04:30:49.670Z,101424.13
2018-08-16T04:33:53.897Z,101426.89
2018-08-16T04:36:58.140Z,101425.88
2018-08-16T04:40:02.393Z,101420.37
2018-08-16T04:43:06.897Z,101410.18
2018-08-16T04:46:11.134Z,101412.93
2018-08-16T04:49:15.382Z,101414.62
2018-08-16T04:52:19.673Z,101412.18
2018-08-16T04:55:23.905Z,101415.53
2018-08-16T04:58:28.161Z,101421.91
2018-08-16T05:01:32.360Z,101423.05
2018-08-16T05:04:36.621Z,101430.78
2018-08-16T05:07:40.875Z,101428.30
2018-08-16T05:10:45.110Z,101430.52
2018-08-16T05:13:49.313Z,101431.09
2018-08-16T05:16:53.594Z,101428.09
2018-08-16T05:19:57.841Z,101427.02
2018-08-16T05:23:02.081Z,101426.72
2018-08-16T05:26:07.135Z,101422.33
2018-08-16T05:29:12.386Z,101425.67
2018-08-16T05:32:17.242Z,101423.23
2018-08-16T05:35:22.545Z,101420.48
2018-08-16T05:38:27.623Z,101415.28
2018-08-16T05:41:32.009Z,101422.18
2018-08-16T05:44:36.207Z,101419.75
2018-08-16T05:47:41.161Z,101416.77
2018-08-16T05:50:46.349Z,101417.63
2018-08-16T05:53:51.022Z,101414.08
2018-08-16T05:56:55.674Z,101413.02
2018-08-16T06:00:01.513Z,101408.35
2018-08-16T06:03:06.119Z,101408.94
2018-08-16T06:06:10.780Z,101404.58
2018-08-16T06:09:16.026Z,101402.70
2018-08-16T06:12:21.610Z,101411.66
2018-08-16T06:15:26.125Z,101405.66
2018-08-16T06:18:32.682Z,101405.42
2018-08-16T06:21:38.269Z,101403.50
2018-08-16T06:24:43.957Z,101399.09
2018-08-16T06:27:49.457Z,101404.38
2018-08-16T06:30:53.790Z,101399.13
2018-08-16T06:33:58.379Z,101402.16
2018-08-16T06:37:02.689Z,101394.16
2018-08-16T06:40:11.957Z,101391.12
2018-08-16T06:43:16.302Z,101392.54
2018-08-16T06:46:20.670Z,101388.42
2018-08-16T06:49:24.940Z,101388.16
2018-08-16T06:52:29.271Z,101381.58
2018-08-16T06:55:33.528Z,101379.09
2018-08-16T06:58:37.810Z,101378.81
2018-08-16T07:01:42.023Z,101384.09
2018-08-16T07:04:46.356Z,101377.19
2018-08-16T07:07:50.629Z,101376.39
2018-08-16T07:10:54.885Z,101381.42
2018-08-16T07:13:59.996Z,101381.71
2018-08-16T07:17:04.715Z,101379.25
2018-08-16T07:20:10.253Z,101383.67
2018-08-16T07:23:15.395Z,101382.56
2018-08-16T07:26:20.388Z,101378.97
2018-08-16T07:29:25.243Z,101378.45
2018-08-16T07:32:30.801Z,101370.42
2018-08-16T07:35:36.534Z,101370.98
2018-08-16T07:38:41.260Z,101359.11
2018-08-16T07:41:46.060Z,101361.84
2018-08-16T07:44:51.329Z,101365.15
2018-08-16T07:47:55.861Z,101358.47
2018-08-16T07:51:01.159Z,101359.02
2018-08-16T07:54:06.327Z,101353.20
2018-08-16T07:57:11.962Z,101353.17
2018-08-16T08:00:19.679Z,101352.84
2018-08-16T08:03:24.569Z,101353.11
2018-08-16T08:06:29.358Z,101345.89
2018-08-16T08:09:34.733Z,101350.31
2018-08-16T08:12:38.982Z,101342.31
2018-08-16T08:15:43.264Z,101343.44
2018-08-16T08:18:47.521Z,101344.62
2018-08-16T08:21:51.760Z,101337.38
2018-08-16T08:24:55.996Z,101332.86
2018-08-16T08:28:00.265Z,101341.31
2018-08-16T08:31:04.545Z,101338.20
2018-08-16T08:34:08.806Z,101333.81
2018-08-16T08:37:30.140Z,101331.36
2018-08-16T08:40:34.360Z,101326.68
2018-08-16T08:43:55.679Z,101330.47
2018-08-16T08:46:59.922Z,101331.28
2018-08-16T08:50:04.177Z,101326.52
2018-08-16T08:53:25.561Z,101319.89
2018-08-16T08:56:46.937Z,101315.13
2018-08-16T08:59:51.168Z,101325.84
2018-08-16T09:02:55.452Z,101318.56
2018-08-16T09:05:59.688Z,101308.88
2018-08-16T09:09:04.107Z,101314.13
2018-08-16T09:12:25.513Z,101315.69
2018-08-16T09:15:46.343Z,101304.61
2018-08-16T09:18:50.601Z,101306.03
2018-08-16T09:21:54.833Z,101302.85
2018-08-16T09:24:59.093Z,101296.56
2018-08-16T09:28:03.330Z,101303.68
2018-08-16T09:31:25.323Z,101295.63
2018-08-16T09:34:29.560Z,101298.36
2018-08-16T09:37:37.679Z,101293.98
2018-08-16T09:40:41.934Z,101297.51
2018-08-16T09:43:46.204Z,101288.20
2018-08-16T09:47:09.404Z,101291.08
2018-08-16T09:50:13.677Z,101288.67
2018-08-16T09:53:17.976Z,101295.47
2018-08-16T09:56:22.254Z,101285.16
2018-08-16T09:59:27.478Z,101291.09
2018-08-16T10:02:31.928Z,101286.45
2018-08-16T10:05:36.342Z,101286.59
2018-08-16T10:08:40.727Z,101287.45
2018-08-16T10:11:46.103Z,101276.48
2018-08-16T10:14:50.913Z,101277.15
2018-08-16T10:17:55.881Z,101283.52
2018-08-16T10:21:00.380Z,101286.11
2018-08-16T10:24:04.949Z,101277.52
2018-08-16T10:27:09.287Z,101283.30
2018-08-16T10:30:13.555Z,101273.84
2018-08-16T10:33:17.832Z,101283.80
2018-08-16T10:36:22.138Z,101287.11
2018-08-16T10:39:26.489Z,101276.25
2018-08-16T10:42:30.714Z,101284.89
2018-08-16T10:45:34.952Z,101283.73
2018-08-16T10:48:39.194Z,101278.55
2018-08-16T10:51:43.468Z,101273.30
2018-08-16T10:54:47.722Z,101281.75
2018-08-16T10:57:51.961Z,101276.61
2018-08-16T11:00:56.197Z,101292.22
2018-08-16T11:04:00.457Z,101297.30
2018-08-16T11:07:04.823Z,101282.81
2018-08-16T11:10:09.074Z,101286.05
2018-08-16T11:13:13.329Z,101306.66
2018-08-16T11:16:17.577Z,101302.77
2018-08-16T11:19:21.832Z,101297.00
2018-08-16T11:22:26.045Z,101291.55
2018-08-16T11:25:30.264Z,101297.87
2018-08-16T11:28:34.469Z,101288.08
2018-08-16T11:31:38.713Z,101287.16
2018-08-16T11:34:42.921Z,101282.10
2018-08-16T11:37:47.153Z,101293.64
2018-08-16T11:40:51.415Z,101294.29
2018-08-16T11:43:55.650Z,101289.89
2018-08-16T11:46:59.849Z,101288.20
2018-08-16T11:50:04.433Z,101287.49
2018-08-16T11:53:08.668Z,101276.33
2018-08-16T11:56:12.941Z,101280.95
2018-08-16T11:59:17.161Z,101284.03
2018-08-16T12:02:21.420Z,101289.66
2018-08-16T12:05:25.669Z,101283.94
2018-08-16T12:08:29.913Z,101284.17
2018-08-16T12:11:34.137Z,101280.25
2018-08-16T12:14:38.381Z,101281.22
2018-08-16T12:17:42.589Z,101286.75
2018-08-16T12:20:46.789Z,101299.78
2018-08-16T12:23:51.015Z,101286.94
2018-08-16T12:26:55.237Z,101294.37
2018-08-16T12:29:59.465Z,101294.73
2018-08-16T12:33:03.684Z,101288.77
2018-08-16T12:36:07.946Z,101295.63
2018-08-16T12:39:12.156Z,101292.41
2018-08-16T12:42:16.421Z,101282.87
2018-08-16T12:45:20.660Z,101286.74
2018-08-16T12:48:24.949Z,101281.97
2018-08-16T12:51:29.181Z,101280.84
2018-08-16T12:54:33.404Z,101283.12
2018-08-16T12:57:37.643Z,101277.57
2018-08-16T13:00:41.860Z,101284.94
2018-08-16T13:03:46.113Z,101277.70
2018-08-16T13:06:50.353Z,101279.62
2018-08-16T13:09:54.577Z,101274.97
2018-08-16T13:12:58.809Z,101275.82
2018-08-16T13:16:03.053Z,101270.02
2018-08-16T13:19:07.344Z,101268.28
2018-08-16T13:22:11.591Z,101269.80
2018-08-16T13:25:15.820Z,101283.08
2018-08-16T13:28:20.075Z,101280.09
2018-08-16T13:31:24.359Z,101273.59
2018-08-16T13:34:28.536Z,101271.78
2018-08-16T13:37:32.756Z,101274.45
2018-08-16T13:40:36.982Z,101262.20
2018-08-16T13:43:41.212Z,101261.30
2018-08-16T13:46:45.433Z,101265.47
2018-08-16T13:49:49.624Z,101263.34
2018-08-16T13:52:53.858Z,101257.84
2018-08-16T13:55:58.211Z,101257.80
2018-08-16T13:59:02.456Z,101251.88
2018-08-16T14:02:06.740Z,101249.16
2018-08-16T14:05:11.077Z,101248.81
2018-08-16T14:08:15.271Z,101248.49
2018-08-16T14:11:19.493Z,101245.97
2018-08-16T14:14:23.732Z,101241.73
2018-08-16T14:17:27.976Z,101234.22
2018-08-16T14:20:32.164Z,101236.69
2018-08-16T14:23:36.410Z,101237.56
2018-08-16T14:26:40.640Z,101231.44
2018-08-16T14:29:44.898Z,101249.14
2018-08-16T14:32:49.130Z,101247.45
2018-08-16T14:35:53.377Z,101239.17
2018-08-16T14:38:57.622Z,101239.31
2018-08-16T14:42:02.090Z,101243.61
2018-08-16T14:45:07.585Z,101244.28
2018-08-16T14:48:12.405Z,101244.09
2018-08-16T14:51:16.645Z,101249.81
2018-08-16T14:54:20.898Z,101245.73
2018-08-16T14:57:25.113Z,101244.67
2018-08-16T15:00:29.360Z,101254.55
2018-08-16T15:03:33.625Z,101237.83
2018-08-16T15:06:37.800Z,101246.70
2018-08-16T15:09:42.048Z,101235.16
2018-08-16T15:12:46.341Z,101239.02
2018-08-16T15:15:50.537Z,101234.15
2018-08-16T15:18:54.791Z,101245.39
2018-08-16T15:21:59.005Z,101250.50
2018-08-16T15:25:03.249Z,101250.83
2018-08-16T15:28:07.760Z,101247.05
2018-08-16T15:31:11.989Z,101245.00
2018-08-16T15:34:16.224Z,101251.50
2018-08-16T15:37:20.486Z,101244.58
2018-08-16T15:40:24.698Z,101241.32
2018-08-16T15:43:28.888Z,101238.02
2018-08-16T15:46:33.105Z,101242.16
2018-08-16T15:49:37.385Z,101238.61
2018-08-16T15:52:41.599Z,101237.16
2018-08-16T15:55:45.893Z,101240.41
2018-08-16T15:58:50.104Z,101236.13
2018-08-16T16:01:54.357Z,101240.66
2018-08-16T16:04:58.609Z,101244.39
2018-08-16T16:08:02.833Z,101247.02
2018-08-16T16:11:07.279Z,101248.00
2018-08-16T16:14:11.541Z,101245.18
2018-08-16T16:17:15.767Z,101249.49
2018-08-16T16:20:20.113Z,101240.41
2018-08-16T16:23:24.329Z,101241.19
2018-08-16T16:26:28.622Z,101232.44
2018-08-16T16:29:32.855Z,101234.73
2018-08-16T16:32:37.236Z,101229.86
2018-08-16T16:35:41.458Z,101225.70
2018-08-16T16:38:45.677Z,101217.50
2018-08-16T16:41:49.918Z,101220.44
2018-08-16T16:44:54.161Z,101219.35
2018-08-16T16:47:58.414Z,101217.38
2018-08-16T16:51:02.622Z,101218.52
2018-08-16T16:54:06.885Z,101217.66
2018-08-16T16:57:11.122Z,101218.27
2018-08-16T17:00:15.350Z,101219.23
2018-08-16T17:03:19.554Z,101218.58
2018-08-16T17:06:23.805Z,101219.28
2018-08-16T17:09:28.049Z,101216.69
2018-08-16T17:12:32.279Z,101214.81
2018-08-16T17:15:36.515Z,101222.40
2018-08-16T17:18:40.745Z,101225.52
2018-08-16T17:21:44.936Z,101224.23
2018-08-16T17:24:49.150Z,101213.81
2018-08-16T17:27:53.412Z,101217.97
2018-08-16T17:30:57.628Z,101217.97
2018-08-16T17:34:02.485Z,101216.59
2018-08-16T17:37:06.819Z,101212.48
2018-08-16T17:40:11.072Z,101207.02
2018-08-16T17:43:15.308Z,101212.27
2018-08-16T17:46:19.548Z,101210.39
2018-08-16T17:49:23.815Z,101216.78
2018-08-16T17:52:28.761Z,101220.93
2018-08-16T17:55:33.017Z,101221.73
2018-08-16T17:58:37.267Z,101219.00
2018-08-16T18:01:41.474Z,101220.42
2018-08-16T18:04:45.745Z,101227.35
2018-08-16T18:07:49.964Z,101222.98
2018-08-16T18:10:54.249Z,101222.44
2018-08-16T18:13:58.508Z,101228.20
2018-08-16T18:17:02.769Z,101225.42
2018-08-16T18:20:07.252Z,101223.53
2018-08-16T18:23:11.474Z,101222.48
2018-08-16T18:26:15.779Z,101218.63
2018-08-16T18:29:19.981Z,101229.20
2018-08-16T18:32:24.360Z,101224.28
2018-08-16T18:35:28.606Z,101227.67
2018-08-16T18:38:32.922Z,101224.36
2018-08-16T18:41:37.740Z,101231.61
2018-08-16T18:44:42.156Z,101237.75
2018-08-16T18:47:46.325Z,101244.48
2018-08-16T18:50:50.610Z,101238.71
2018-08-16T18:53:54.934Z,101242.41
2018-08-16T18:57:01.449Z,101251.50
2018-08-16T19:00:07.544Z,101258.47
2018-08-16T19:03:12.089Z,101256.28
2018-08-16T19:06:16.645Z,101264.61
2018-08-16T19:09:23.966Z,101267.13
2018-08-16T19:12:28.837Z,101262.73
2018-08-16T19:15:33.832Z,101263.61
2018-08-16T19:18:40.693Z,101267.51
2018-08-16T19:21:48.025Z,101252.88
2018-08-16T19:24:52.992Z,101257.91
2018-08-16T19:27:58.177Z,101262.36
2018-08-16T19:31:02.485Z,101259.34
2018-08-16T19:34:06.720Z,101255.46
2018-08-16T19:37:10.973Z,101252.15
2018-08-16T19:40:15.204Z,101248.02
2018-08-16T19:43:19.481Z,101251.34
2018-08-16T19:46:23.805Z,101253.31
2018-08-16T19:49:31.439Z,101250.25
2018-08-16T19:52:36.441Z,101247.22
2018-08-16T19:55:41.424Z,101255.52
2018-08-16T19:58:47.465Z,101251.38
2018-08-16T20:01:52.648Z,101255.27
2018-08-16T20:04:58.107Z,101252.79
2018-08-16T20:08:03.348Z,101250.30
2018-08-16T20:11:08.596Z,101250.31
2018-08-16T20:14:13.308Z,101243.98
2018-08-16T20:17:18.588Z,101246.71
2018-08-16T20:20:23.698Z,101237.06
2018-08-16T20:23:28.733Z,101241.73
2018-08-16T20:26:34.441Z,101243.09
2018-08-16T20:29:39.933Z,101238.69
2018-08-16T20:32:45.464Z,101243.92
2018-08-16T20:35:51.731Z,101250.82
2018-08-16T20:38:57.020Z,101254.41
2018-08-16T20:42:02.414Z,101241.42
2018-08-16T20:45:07.641Z,101246.68
2018-08-16T20:48:11.968Z,101255.78
2018-08-16T20:51:16.198Z,101262.66
2018-08-16T20:54:20.444Z,101264.31
2018-08-16T20:57:24.752Z,101268.45
2018-08-16T21:00:28.978Z,101277.27
2018-08-16T21:03:33.234Z,101271.48
2018-08-16T21:06:37.676Z,101273.13
2018-08-16T21:09:41.887Z,101267.31
2018-08-16T21:12:46.133Z,101270.09
2018-08-16T21:15:50.373Z,101280.55
2018-08-16T21:18:54.774Z,101277.25
2018-08-16T21:21:59.026Z,101276.12
2018-08-16T21:25:03.301Z,101279.42
2018-08-16T21:28:07.589Z,101285.48
2018-08-16T21:31:11.837Z,101279.11
2018-08-16T21:34:16.105Z,101284.33
2018-08-16T21:37:20.333Z,101284.57
2018-08-16T21:40:24.607Z,101286.22
2018-08-16T21:43:28.804Z,101288.67
2018-08-16T21:46:33.065Z,101283.13
2018-08-16T21:49:37.297Z,101289.19
2018-08-16T21:52:41.561Z,101288.05
2018-08-16T21:55:45.829Z,101287.47
2018-08-16T21:58:50.057Z,101277.80
2018-08-16T22:01:54.396Z,101278.33
2018-08-16T22:04:58.619Z,101269.80
2018-08-16T22:08:11.769Z,101271.72
2018-08-16T22:11:16.034Z,101274.20
2018-08-16T22:14:20.259Z,101273.90
2018-08-16T22:17:24.493Z,101264.83
2018-08-16T22:20:28.816Z,101265.06
2018-08-16T22:23:33.040Z,101271.95
2018-08-16T22:26:37.272Z,101271.11
2018-08-16T22:29:41.529Z,101261.97
2018-08-16T22:32:46.512Z,101266.94
2018-08-16T22:35:50.769Z,101269.12
2018-08-16T22:38:55.080Z,101264.72
2018-08-16T22:41:59.329Z,101266.89
2018-08-16T22:45:03.914Z,101272.67
2018-08-16T22:48:08.413Z,101277.30
2018-08-16T22:51:12.659Z,101281.70
2018-08-16T22:54:16.878Z,101280.59
2018-08-16T22:57:21.129Z,101283.61
2018-08-16T23:00:25.373Z,101285.23
2018-08-16T23:03:29.626Z,101290.70
2018-08-16T23:06:33.873Z,101285.41
2018-08-16T23:09:38.588Z,101285.06
2018-08-16T23:12:42.900Z,101284.70
2018-08-16T23:15:47.161Z,101287.98
2018-08-16T23:18:51.404Z,101288.77
2018-08-16T23:21:55.647Z,101296.98
2018-08-16T23:24:59.909Z,101298.34
2018-08-16T23:28:04.137Z,101296.06
2018-08-16T23:31:08.380Z,101293.25
2018-08-16T23:34:12.604Z,101293.19
2018-08-16T23:37:16.841Z,101294.55
2018-08-16T23:40:21.098Z,101292.86
2018-08-16T23:43:25.321Z,101294.48
2018-08-16T23:46:29.610Z,101293.89
2018-08-16T23:49:33.850Z,101293.23
2018-08-16T23:52:38.112Z,101298.09
2018-08-16T23:55:42.364Z,101295.58
2018-08-16T23:58:46.644Z,101291.92
